Aérodrome :
LOGIN :

S'inscrire | Disclaimer

   EN    FR    IT 

 










Légende :    VFR   VFR Marginal   IFR   IFR Intensif   IFR Très Intensif
Visi : 
Plafond : 
>= 8 km
>= 3000ft
5 à 8 km
1000 à 3000 ft
1500m à 5 km
500 à 1000 ft
800 à 1500m
200 à 500 ft
< 800m
< 200 ft
Symboles :   Orages  Brouillard  Fortes neiges  Fortes précipitations  Vent > 20 kt
SIGMETs :   Divers  Orages  Givrage  Turbulence  Onde Orograph.  Cendres Volcan.






- Altitude de l'aérodrome : 314 ft
- Code IATA : OTP


LROP - Bucarest - Henri Coanda

DERNIER METAR :
  • 070100Z 25007KT 1500 R08R/1800D R26L/1600N R08L/1600U R26R/1500N PRFG BR OVC001 M03/M03 Q1019 NOSIG

METARs EXPIRÉS :
  • 070030Z 24007KT 1500 R08R/P2000U R26L/1800U R08L/P2000U R26R/1600U BR OVC001 M03/M03 Q1020 NOSIG
  • 070000Z 23007KT 1500 R08R/1700U R26L/1800D R08L/P2000U R26R/1600D BR OVC001 M03/M03 Q1020 NOSIG
  • 062330Z 24007KT 2500 BR OVC001 M03/M03 Q1020 NOSIG
  • 062300Z 24008KT 2000 BR OVC001 M03/M03 Q1020 NOSIG
  • 062230Z 25006KT 1500 R08R/P2000U R26L/P2000U R08L/P2000D R26R/1500U BR OVC001 M03/M03 Q1021 NOSIG

TAF TAF LROP
Valide du 07 à 00h jusqu'au 08 à 00h UTC


062300Z 0700/0724 24008KT 1500 BR OVC002
PROB40
TEMPO 0700/0706 0600 FZFG VV001
BECMG 0706/0708 3000 BR BKN005
BECMG 0708/0710 CAVOK
BECMG 0718/0720 3000 BR
BECMG 0720/0722 0800 FZFG OVC002



MET'MAP, la Météo Aéronautique d'un coup d'oeil ! - Copyright ORBIFLY Décembre 2007 - Disclaimer

ORBIFLY MET'MAP TEAM :

Programmation & Développement : Alexandra Zaïnal
Sur une idée originale de : Baudouin d'Aumeries
Assistance à la programmation : Marc-Olivier Méhu
Soutien technique & logistique : Manuel Goepfert

Contact : metmap@orbifly.com




SOURCES & CREDITS :

   NOAA